sensor_id;sensor_type;location;lat;lon;timestamp;pressure;altitude;pressure_sealevel;temperature;humidity
11001;BME280;5553;48.506;8.870;2022-09-03T00:01:50;96112.63;;;15.61;100.00
11001;BME280;5553;48.506;8.870;2022-09-03T00:04:24;96125.59;;;15.46;100.00
11001;BME280;5553;48.506;8.870;2022-09-03T00:07:00;96129.28;;;15.57;100.00
11001;BME280;5553;48.506;8.870;2022-09-03T00:09:33;96131.22;;;15.38;100.00
11001;BME280;5553;48.506;8.870;2022-09-03T00:12:08;96138.63;;;15.48;100.00
11001;BME280;5553;48.506;8.870;2022-09-03T00:14:45;96130.09;;;15.46;100.00
11001;BME280;5553;48.506;8.870;2022-09-03T00:17:16;96129.63;;;15.37;100.00
11001;BME280;5553;48.506;8.870;2022-09-03T00:19:51;96127.66;;;15.44;100.00
11001;BME280;5553;48.506;8.870;2022-09-03T00:22:23;96124.06;;;15.50;100.00
11001;BME280;5553;48.506;8.870;2022-09-03T00:24:53;96123.84;;;15.40;100.00
11001;BME280;5553;48.506;8.870;2022-09-03T00:27:27;96121.53;;;15.44;100.00
11001;BME280;5553;48.506;8.870;2022-09-03T00:30:00;96114.13;;;15.34;100.00
11001;BME280;5553;48.506;8.870;2022-09-03T00:32:38;96125.69;;;15.28;100.00
11001;BME280;5553;48.506;8.870;2022-09-03T00:35:12;96123.38;;;15.20;100.00
11001;BME280;5553;48.506;8.870;2022-09-03T00:37:41;96126.50;;;15.28;100.00
11001;BME280;5553;48.506;8.870;2022-09-03T00:40:21;96129.63;;;15.25;100.00
11001;BME280;5553;48.506;8.870;2022-09-03T00:43:03;96138.50;;;15.19;100.00
11001;BME280;5553;48.506;8.870;2022-09-03T00:45:45;96131.34;;;15.20;100.00
11001;BME280;5553;48.506;8.870;2022-09-03T00:48:21;96125.91;;;15.26;100.00
11001;BME280;5553;48.506;8.870;2022-09-03T00:51:04;96126.25;;;15.30;100.00
11001;BME280;5553;48.506;8.870;2022-09-03T00:53:41;96119.09;;;15.30;100.00
11001;BME280;5553;48.506;8.870;2022-09-03T00:56:24;96112.97;;;15.30;100.00
11001;BME280;5553;48.506;8.870;2022-09-03T00:59:13;96111.59;;;15.27;100.00
11001;BME280;5553;48.506;8.870;2022-09-03T01:01:59;96122.31;;;15.21;100.00
11001;BME280;5553;48.506;8.870;2022-09-03T01:04:41;96126.03;;;15.20;100.00
11001;BME280;5553;48.506;8.870;2022-09-03T01:07:19;96127.06;;;15.19;100.00
11001;BME280;5553;48.506;8.870;2022-09-03T01:09:55;96126.94;;;15.13;100.00
11001;BME280;5553;48.506;8.870;2022-09-03T01:12:34;96120.72;;;15.20;100.00
11001;BME280;5553;48.506;8.870;2022-09-03T01:15:10;96128.22;;;15.23;100.00
11001;BME280;5553;48.506;8.870;2022-09-03T01:17:55;96118.06;;;15.20;100.00
11001;BME280;5553;48.506;8.870;2022-09-03T01:20:50;96123.81;;;15.16;100.00
11001;BME280;5553;48.506;8.870;2022-09-03T01:23:47;96126.47;;;15.16;100.00
11001;BME280;5553;48.506;8.870;2022-09-03T01:26:30;96128.44;;;15.09;100.00
11001;BME280;5553;48.506;8.870;2022-09-03T01:29:11;96136.50;;;15.03;100.00
11001;BME280;5553;48.506;8.870;2022-09-03T01:31:50;96140.78;;;15.04;100.00
11001;BME280;5553;48.506;8.870;2022-09-03T01:34:29;96136.84;;;14.95;100.00
11001;BME280;5553;48.506;8.870;2022-09-03T01:37:06;96150.94;;;14.95;100.00
11001;BME280;5553;48.506;8.870;2022-09-03T01:39:50;96149.19;;;14.89;100.00
11001;BME280;5553;48.506;8.870;2022-09-03T01:42:24;96152.28;;;14.86;100.00
11001;BME280;5553;48.506;8.870;2022-09-03T01:45:23;96161.38;;;14.78;100.00
11001;BME280;5553;48.506;8.870;2022-09-03T01:48:06;96153.28;;;14.73;100.00
11001;BME280;5553;48.506;8.870;2022-09-03T01:50:44;96166.78;;;14.72;100.00
11001;BME280;5553;48.506;8.870;2022-09-03T01:53:37;96166.78;;;14.72;100.00
11001;BME280;5553;48.506;8.870;2022-09-03T01:56:21;96169.19;;;14.61;100.00
11001;BME280;5553;48.506;8.870;2022-09-03T01:59:02;96161.81;;;14.63;100.00
11001;BME280;5553;48.506;8.870;2022-09-03T02:01:37;96166.44;;;14.68;100.00
11001;BME280;5553;48.506;8.870;2022-09-03T02:04:18;96158.47;;;14.68;100.00
11001;BME280;5553;48.506;8.870;2022-09-03T02:06:48;96164.13;;;14.72;100.00
11001;BME280;5553;48.506;8.870;2022-09-03T02:09:17;96162.38;;;14.65;100.00
11001;BME280;5553;48.506;8.870;2022-09-03T02:11:52;96163.41;;;14.64;100.00
11001;BME280;5553;48.506;8.870;2022-09-03T02:14:23;96158.47;;;14.68;100.00
11001;BME280;5553;48.506;8.870;2022-09-03T02:16:54;96154.84;;;14.62;100.00
11001;BME280;5553;48.506;8.870;2022-09-03T02:19:26;96148.75;;;14.62;100.00
11001;BME280;5553;48.506;8.870;2022-09-03T02:21:56;96156.66;;;14.50;100.00
11001;BME280;5553;48.506;8.870;2022-09-03T02:24:25;96158.28;;;14.51;100.00
11001;BME280;5553;48.506;8.870;2022-09-03T02:26:55;96151.53;;;14.49;100.00
11001;BME280;5553;48.506;8.870;2022-09-03T02:29:24;96144.25;;;14.44;100.00
11001;BME280;5553;48.506;8.870;2022-09-03T02:31:55;96151.50;;;14.37;100.00
11001;BME280;5553;48.506;8.870;2022-09-03T02:34:24;96157.63;;;14.37;100.00
11001;BME280;5553;48.506;8.870;2022-09-03T02:36:53;96162.13;;;14.37;100.00
11001;BME280;5553;48.506;8.870;2022-09-03T02:39:21;96165.41;;;14.32;100.00
11001;BME280;5553;48.506;8.870;2022-09-03T02:41:50;96168.34;;;14.12;100.00
11001;BME280;5553;48.506;8.870;2022-09-03T02:44:25;96164.03;;;14.11;100.00
11001;BME280;5553;48.506;8.870;2022-09-03T02:47:00;96170.97;;;14.12;100.00
11001;BME280;5553;48.506;8.870;2022-09-03T02:49:29;96169.72;;;14.15;100.00
11001;BME280;5553;48.506;8.870;2022-09-03T02:51:58;96178.56;;;14.27;100.00
11001;BME280;5553;48.506;8.870;2022-09-03T02:54:30;96169.19;;;14.25;100.00
11001;BME280;5553;48.506;8.870;2022-09-03T02:57:01;96170.38;;;14.10;100.00
11001;BME280;5553;48.506;8.870;2022-09-03T02:59:29;96181.22;;;14.09;100.00
11001;BME280;5553;48.506;8.870;2022-09-03T03:02:00;96176.28;;;14.12;100.00
11001;BME280;5553;48.506;8.870;2022-09-03T03:04:29;96170.97;;;14.12;100.00
11001;BME280;5553;48.506;8.870;2022-09-03T03:06:57;96183.88;;;14.09;100.00
11001;BME280;5553;48.506;8.870;2022-09-03T03:09:26;96181.38;;;14.14;100.00
11001;BME280;5553;48.506;8.870;2022-09-03T03:11:54;96178.72;;;14.14;100.00
11001;BME280;5553;48.506;8.870;2022-09-03T03:14:22;96167.28;;;14.13;100.00
11001;BME280;5553;48.506;8.870;2022-09-03T03:16:50;96184.53;;;14.04;100.00
11001;BME280;5553;48.506;8.870;2022-09-03T03:19:21;96186.91;;;14.12;100.00
11001;BME280;5553;48.506;8.870;2022-09-03T03:21:50;96184.97;;;14.01;100.00
11001;BME280;5553;48.506;8.870;2022-09-03T03:24:18;96187.53;;;14.08;100.00
11001;BME280;5553;48.506;8.870;2022-09-03T03:26:46;96187.91;;;14.11;100.00
11001;BME280;5553;48.506;8.870;2022-09-03T03:29:15;96193.81;;;13.95;100.00
11001;BME280;5553;48.506;8.870;2022-09-03T03:31:44;96200.75;;;13.96;100.00
11001;BME280;5553;48.506;8.870;2022-09-03T03:34:13;96193.09;;;14.06;100.00
11001;BME280;5553;48.506;8.870;2022-09-03T03:36:44;96194.25;;;14.10;100.00
11001;BME280;5553;48.506;8.870;2022-09-03T03:39:12;96196.25;;;14.15;100.00
11001;BME280;5553;48.506;8.870;2022-09-03T03:41:40;96195.66;;;14.13;100.00
11001;BME280;5553;48.506;8.870;2022-09-03T03:44:08;96192.03;;;14.07;100.00
11001;BME280;5553;48.506;8.870;2022-09-03T03:46:38;96202.59;;;13.95;100.00
11001;BME280;5553;48.506;8.870;2022-09-03T03:49:07;96210.75;;;13.94;100.00
11001;BME280;5553;48.506;8.870;2022-09-03T03:51:37;96210.38;;;13.90;100.00
11001;BME280;5553;48.506;8.870;2022-09-03T03:54:08;96221.03;;;13.84;100.00
11001;BME280;5553;48.506;8.870;2022-09-03T03:56:36;96221.03;;;13.84;100.00
11001;BME280;5553;48.506;8.870;2022-09-03T03:59:04;96225.34;;;13.85;100.00
11001;BME280;5553;48.506;8.870;2022-09-03T04:01:32;96220.47;;;13.82;100.00
11001;BME280;5553;48.506;8.870;2022-09-03T04:04:01;96216.91;;;13.88;100.00
11001;BME280;5553;48.506;8.870;2022-09-03T04:06:29;96224.06;;;13.87;100.00
11001;BME280;5553;48.506;8.870;2022-09-03T04:08:58;96218.94;;;13.92;100.00
11001;BME280;5553;48.506;8.870;2022-09-03T04:11:29;96216.03;;;13.94;100.00
11001;BME280;5553;48.506;8.870;2022-09-03T04:13:57;96218.13;;;13.92;100.00
11001;BME280;5553;48.506;8.870;2022-09-03T04:16:26;96215.25;;;13.93;100.00
11001;BME280;5553;48.506;8.870;2022-09-03T04:18:57;96213.47;;;13.87;100.00
11001;BME280;5553;48.506;8.870;2022-09-03T04:21:27;96216.47;;;13.91;100.00
11001;BME280;5553;48.506;8.870;2022-09-03T04:23:56;96224.28;;;13.86;100.00
11001;BME280;5553;48.506;8.870;2022-09-03T04:26:29;96219.50;;;13.94;100.00
11001;BME280;5553;48.506;8.870;2022-09-03T04:28:59;96215.47;;;13.92;100.00
11001;BME280;5553;48.506;8.870;2022-09-03T04:31:27;96222.63;;;13.91;100.00
11001;BME280;5553;48.506;8.870;2022-09-03T04:33:56;96218.50;;;13.95;100.00
11001;BME280;5553;48.506;8.870;2022-09-03T04:38:59;96225.78;;;14.00;100.00
11001;BME280;5553;48.506;8.870;2022-09-03T04:41:31;96223.94;;;14.01;100.00
11001;BME280;5553;48.506;8.870;2022-09-03T04:43:59;96218.13;;;14.10;100.00
11001;BME280;5553;48.506;8.870;2022-09-03T04:46:28;96222.41;;;14.11;100.00
11001;BME280;5553;48.506;8.870;2022-09-03T04:48:59;96226.69;;;14.12;100.00
11001;BME280;5553;48.506;8.870;2022-09-03T04:51:28;96225.66;;;14.13;100.00
11001;BME280;5553;48.506;8.870;2022-09-03T04:53:58;96221.97;;;14.14;100.00
11001;BME280;5553;48.506;8.870;2022-09-03T04:56:28;96221.38;;;14.12;100.00
11001;BME280;5553;48.506;8.870;2022-09-03T04:59:00;96229.78;;;14.09;100.00
11001;BME280;5553;48.506;8.870;2022-09-03T05:01:30;96230.97;;;14.13;100.00
11001;BME280;5553;48.506;8.870;2022-09-03T05:03:59;96231.75;;;14.14;100.00
11001;BME280;5553;48.506;8.870;2022-09-03T05:06:30;96221.16;;;14.14;100.00
11001;BME280;5553;48.506;8.870;2022-09-03T05:08:59;96215.66;;;14.15;100.00
11001;BME280;5553;48.506;8.870;2022-09-03T05:11:28;96219.25;;;14.21;100.00
11001;BME280;5553;48.506;8.870;2022-09-03T05:13:59;96210.16;;;14.29;100.00
11001;BME280;5553;48.506;8.870;2022-09-03T05:16:28;96214.66;;;14.28;100.00
11001;BME280;5553;48.506;8.870;2022-09-03T05:18:58;96216.22;;;14.36;100.00
11001;BME280;5553;48.506;8.870;2022-09-03T05:21:28;96223.59;;;14.34;100.00
11001;BME280;5553;48.506;8.870;2022-09-03T05:23:59;96227.66;;;14.36;100.00
11001;BME280;5553;48.506;8.870;2022-09-03T05:26:29;96226.00;;;14.35;100.00
11001;BME280;5553;48.506;8.870;2022-09-03T05:29:02;96227.72;;;14.48;100.00
11001;BME280;5553;48.506;8.870;2022-09-03T05:31:33;96219.94;;;14.53;100.00
11001;BME280;5553;48.506;8.870;2022-09-03T05:34:03;96218.44;;;14.57;100.00
11001;BME280;5553;48.506;8.870;2022-09-03T05:36:33;96219.25;;;14.39;100.00
11001;BME280;5553;48.506;8.870;2022-09-03T05:39:03;96222.41;;;14.48;100.00
11001;BME280;5553;48.506;8.870;2022-09-03T05:41:32;96221.34;;;14.49;100.00
11001;BME280;5553;48.506;8.870;2022-09-03T05:44:03;96228.47;;;14.55;100.00
11001;BME280;5553;48.506;8.870;2022-09-03T05:46:32;96223.88;;;14.62;100.00
11001;BME280;5553;48.506;8.870;2022-09-03T05:49:04;96223.00;;;14.68;100.00
11001;BME280;5553;48.506;8.870;2022-09-03T05:51:33;96220.94;;;14.71;100.00
11001;BME280;5553;48.506;8.870;2022-09-03T05:54:03;96221.06;;;14.76;100.00
11001;BME280;5553;48.506;8.870;2022-09-03T05:56:34;96225.47;;;14.82;100.00
11001;BME280;5553;48.506;8.870;2022-09-03T05:59:08;96226.06;;;14.84;100.00
11001;BME280;5553;48.506;8.870;2022-09-03T06:01:39;96242.13;;;14.89;100.00
11001;BME280;5553;48.506;8.870;2022-09-03T06:04:09;96232.91;;;14.91;100.00
11001;BME280;5553;48.506;8.870;2022-09-03T06:06:39;96231.19;;;14.97;100.00
11001;BME280;5553;48.506;8.870;2022-09-03T06:09:09;96235.59;;;15.03;100.00
11001;BME280;5553;48.506;8.870;2022-09-03T06:11:38;96229.03;;;15.06;100.00
11001;BME280;5553;48.506;8.870;2022-09-03T06:14:10;96238.03;;;15.05;100.00
11001;BME280;5553;48.506;8.870;2022-09-03T06:16:41;96233.53;;;15.05;100.00
11001;BME280;5553;48.506;8.870;2022-09-03T06:19:10;96226.28;;;15.12;100.00
11001;BME280;5553;48.506;8.870;2022-09-03T06:21:40;96220.63;;;15.21;100.00
11001;BME280;5553;48.506;8.870;2022-09-03T06:24:13;96225.03;;;15.27;100.00
11001;BME280;5553;48.506;8.870;2022-09-03T06:26:42;96229.91;;;15.30;100.00
11001;BME280;5553;48.506;8.870;2022-09-03T06:29:14;96220.44;;;15.34;100.00
11001;BME280;5553;48.506;8.870;2022-09-03T06:31:43;96211.56;;;15.40;100.00
11001;BME280;5553;48.506;8.870;2022-09-03T06:34:12;96215.72;;;15.48;100.00
11001;BME280;5553;48.506;8.870;2022-09-03T06:36:43;96212.25;;;15.47;100.00
11001;BME280;5553;48.506;8.870;2022-09-03T06:39:11;96203.22;;;15.48;100.00
11001;BME280;5553;48.506;8.870;2022-09-03T06:41:39;96210.84;;;15.45;100.00
11001;BME280;5553;48.506;8.870;2022-09-03T06:44:12;96199.31;;;15.51;100.00
11001;BME280;5553;48.506;8.870;2022-09-03T06:46:41;96202.56;;;15.53;100.00
11001;BME280;5553;48.506;8.870;2022-09-03T06:49:09;96204.06;;;15.60;100.00
11001;BME280;5553;48.506;8.870;2022-09-03T06:51:38;96201.66;;;15.59;100.00
11001;BME280;5553;48.506;8.870;2022-09-03T06:54:09;96188.22;;;15.65;100.00
11001;BME280;5553;48.506;8.870;2022-09-03T06:56:39;96177.63;;;15.77;100.00
11001;BME280;5553;48.506;8.870;2022-09-03T06:59:09;96196.00;;;15.79;100.00
11001;BME280;5553;48.506;8.870;2022-09-03T07:01:41;96195.75;;;15.92;100.00
11001;BME280;5553;48.506;8.870;2022-09-03T07:04:11;96198.09;;;16.00;100.00
11001;BME280;5553;48.506;8.870;2022-09-03T07:06:40;96191.72;;;16.01;100.00
11001;BME280;5553;48.506;8.870;2022-09-03T07:09:11;96191.13;;;15.99;100.00
11001;BME280;5553;48.506;8.870;2022-09-03T07:11:42;96187.66;;;16.10;100.00
11001;BME280;5553;48.506;8.870;2022-09-03T07:14:15;96190.53;;;16.09;100.00
11001;BME280;5553;48.506;8.870;2022-09-03T07:16:47;96187.97;;;16.26;100.00
11001;BME280;5553;48.506;8.870;2022-09-03T07:19:16;96186.19;;;16.43;100.00
11001;BME280;5553;48.506;8.870;2022-09-03T07:21:44;96185.19;;;16.61;100.00
11001;BME280;5553;48.506;8.870;2022-09-03T07:24:13;96183.00;;;16.98;100.00
11001;BME280;5553;48.506;8.870;2022-09-03T07:26:42;96167.28;;;18.20;100.00
11001;BME280;5553;48.506;8.870;2022-09-03T07:29:11;96158.00;;;19.26;100.00
11001;BME280;5553;48.506;8.870;2022-09-03T07:31:41;96156.03;;;18.84;100.00
11001;BME280;5553;48.506;8.870;2022-09-03T07:34:12;96159.13;;;19.03;100.00
11001;BME280;5553;48.506;8.870;2022-09-03T07:36:42;96161.66;;;18.87;100.00
11001;BME280;5553;48.506;8.870;2022-09-03T07:39:12;96163.38;;;18.06;100.00
11001;BME280;5553;48.506;8.870;2022-09-03T07:41:43;96156.66;;;18.03;100.00
11001;BME280;5553;48.506;8.870;2022-09-03T07:44:12;96165.28;;;18.76;100.00
11001;BME280;5553;48.506;8.870;2022-09-03T07:46:43;96162.94;;;19.39;100.00
11001;BME280;5553;48.506;8.870;2022-09-03T07:49:16;96169.34;;;19.70;100.00
11001;BME280;5553;48.506;8.870;2022-09-03T07:51:44;96167.03;;;20.36;97.78
11001;BME280;5553;48.506;8.870;2022-09-03T07:54:14;96166.88;;;20.64;89.97
11001;BME280;5553;48.506;8.870;2022-09-03T07:56:44;96166.06;;;20.58;86.24
11001;BME280;5553;48.506;8.870;2022-09-03T07:59:12;96169.31;;;20.70;84.02
11001;BME280;5553;48.506;8.870;2022-09-03T08:01:41;96178.81;;;19.83;86.22
11001;BME280;5553;48.506;8.870;2022-09-03T08:04:10;96176.50;;;20.54;83.57
11001;BME280;5553;48.506;8.870;2022-09-03T08:06:41;96171.75;;;20.72;80.15
11001;BME280;5553;48.506;8.870;2022-09-03T08:09:11;96172.50;;;20.09;82.67
11001;BME280;5553;48.506;8.870;2022-09-03T08:11:40;96179.22;;;20.07;83.17
11001;BME280;5553;48.506;8.870;2022-09-03T08:14:11;96175.28;;;20.25;82.53
11001;BME280;5553;48.506;8.870;2022-09-03T08:16:42;96173.22;;;20.47;82.23
11001;BME280;5553;48.506;8.870;2022-09-03T08:19:11;96180.53;;;20.04;83.76
11001;BME280;5553;48.506;8.870;2022-09-03T08:21:42;96172.91;;;19.86;85.01
11001;BME280;5553;48.506;8.870;2022-09-03T08:24:13;96174.53;;;20.40;83.05
11001;BME280;5553;48.506;8.870;2022-09-03T08:26:42;96173.06;;;20.74;79.39
11001;BME280;5553;48.506;8.870;2022-09-03T08:29:10;96182.81;;;21.11;77.17
11001;BME280;5553;48.506;8.870;2022-09-03T08:31:38;96176.69;;;21.72;74.82
11001;BME280;5553;48.506;8.870;2022-09-03T08:34:08;96188.75;;;21.90;75.61
11001;BME280;5553;48.506;8.870;2022-09-03T08:36:38;96188.72;;;22.00;75.19
11001;BME280;5553;48.506;8.870;2022-09-03T08:39:10;96167.63;;;23.81;66.46
11001;BME280;5553;48.506;8.870;2022-09-03T08:41:55;96174.72;;;24.92;65.14
11001;BME280;5553;48.506;8.870;2022-09-03T08:44:29;96184.16;;;25.84;62.60
11001;BME280;5553;48.506;8.870;2022-09-03T08:47:01;96160.81;;;24.42;60.36
11001;BME280;5553;48.506;8.870;2022-09-03T08:49:37;96182.50;;;23.74;62.51
11001;BME280;5553;48.506;8.870;2022-09-03T08:52:25;96176.72;;;24.15;62.46
11001;BME280;5553;48.506;8.870;2022-09-03T08:57:48;96194.63;;;22.07;66.06
11001;BME280;5553;48.506;8.870;2022-09-03T09:00:18;96191.44;;;22.15;66.74
11001;BME280;5553;48.506;8.870;2022-09-03T09:03:04;96199.97;;;22.28;67.02
11001;BME280;5553;48.506;8.870;2022-09-03T09:05:42;96212.63;;;22.01;67.85
11001;BME280;5553;48.506;8.870;2022-09-03T09:08:22;96204.81;;;22.10;67.07
11001;BME280;5553;48.506;8.870;2022-09-03T09:11:01;96200.53;;;22.24;66.47
11001;BME280;5553;48.506;8.870;2022-09-03T09:13:41;96200.28;;;22.91;66.03
11001;BME280;5553;48.506;8.870;2022-09-03T09:16:18;96178.69;;;23.06;64.49
11001;BME280;5553;48.506;8.870;2022-09-03T09:18:59;96178.13;;;23.09;62.97
11001;BME280;5553;48.506;8.870;2022-09-03T09:21:34;96179.91;;;22.69;64.19
11001;BME280;5553;48.506;8.870;2022-09-03T09:24:16;96179.31;;;22.83;64.29
11001;BME280;5553;48.506;8.870;2022-09-03T09:26:51;96187.25;;;23.87;62.19
11001;BME280;5553;48.506;8.870;2022-09-03T09:29:22;96177.84;;;24.80;60.33
11001;BME280;5553;48.506;8.870;2022-09-03T09:31:52;96178.22;;;22.89;62.09
11001;BME280;5553;48.506;8.870;2022-09-03T09:34:20;96200.41;;;22.55;65.72
11001;BME280;5553;48.506;8.870;2022-09-03T09:36:51;96201.56;;;22.34;66.46
11001;BME280;5553;48.506;8.870;2022-09-03T09:39:20;96195.69;;;22.01;66.81
11001;BME280;5553;48.506;8.870;2022-09-03T09:42:03;96208.59;;;21.94;68.01
11001;BME280;5553;48.506;8.870;2022-09-03T09:44:34;96211.53;;;22.08;68.03
11001;BME280;5553;48.506;8.870;2022-09-03T09:47:04;96210.22;;;22.00;68.66
11001;BME280;5553;48.506;8.870;2022-09-03T09:49:35;96212.63;;;21.96;69.66
11001;BME280;5553;48.506;8.870;2022-09-03T09:52:07;96210.50;;;21.93;69.11
11001;BME280;5553;48.506;8.870;2022-09-03T09:54:37;96203.47;;;22.13;68.71
11001;BME280;5553;48.506;8.870;2022-09-03T09:57:14;96174.06;;;25.00;61.49
11001;BME280;5553;48.506;8.870;2022-09-03T09:59:44;96157.09;;;26.03;57.25
11001;BME280;5553;48.506;8.870;2022-09-03T10:02:19;96170.09;;;25.68;56.89
11001;BME280;5553;48.506;8.870;2022-09-03T10:04:48;96167.59;;;26.18;56.87
11001;BME280;5553;48.506;8.870;2022-09-03T10:07:23;96178.16;;;26.48;56.48
11001;BME280;5553;48.506;8.870;2022-09-03T10:10:00;96144.25;;;24.73;56.76
11001;BME280;5553;48.506;8.870;2022-09-03T10:12:35;96179.03;;;23.73;60.23
11001;BME280;5553;48.506;8.870;2022-09-03T10:15:17;96176.97;;;23.89;59.89
11001;BME280;5553;48.506;8.870;2022-09-03T10:17:55;96175.00;;;23.71;60.75
11001;BME280;5553;48.506;8.870;2022-09-03T10:20:30;96200.59;;;23.68;63.10
11001;BME280;5553;48.506;8.870;2022-09-03T10:23:16;96179.31;;;22.88;63.27
11001;BME280;5553;48.506;8.870;2022-09-03T10:25:54;96186.38;;;22.74;65.01
11001;BME280;5553;48.506;8.870;2022-09-03T10:28:29;96188.88;;;23.09;65.23
11001;BME280;5553;48.506;8.870;2022-09-03T10:31:16;96185.25;;;22.80;64.63
11001;BME280;5553;48.506;8.870;2022-09-03T10:33:53;96183.00;;;22.42;63.85
11001;BME280;5553;48.506;8.870;2022-09-03T10:36:25;96196.13;;;22.54;63.96
11001;BME280;5553;48.506;8.870;2022-09-03T10:39:03;96201.34;;;22.05;65.59
11001;BME280;5553;48.506;8.870;2022-09-03T10:41:41;96203.47;;;22.13;66.95
11001;BME280;5553;48.506;8.870;2022-09-03T10:44:51;96180.41;;;22.17;66.03
11001;BME280;5553;48.506;8.870;2022-09-03T10:50:19;96189.03;;;21.73;68.73
11001;BME280;5553;48.506;8.870;2022-09-03T10:53:05;96182.88;;;21.62;69.33
11001;BME280;5553;48.506;8.870;2022-09-03T10:55:44;96197.88;;;21.73;70.30
11001;BME280;5553;48.506;8.870;2022-09-03T10:58:30;96187.72;;;21.65;68.89
11001;BME280;5553;48.506;8.870;2022-09-03T11:01:12;96184.22;;;21.44;67.82
11001;BME280;5553;48.506;8.870;2022-09-03T11:03:47;96186.63;;;21.51;68.32
11001;BME280;5553;48.506;8.870;2022-09-03T11:06:20;96186.09;;;21.44;69.07
11001;BME280;5553;48.506;8.870;2022-09-03T11:08:55;96188.72;;;21.08;71.33
11001;BME280;5553;48.506;8.870;2022-09-03T11:11:30;96196.22;;;20.96;73.01
11001;BME280;5553;48.506;8.870;2022-09-03T11:14:03;96188.69;;;20.93;73.68
11001;BME280;5553;48.506;8.870;2022-09-03T11:16:40;96182.19;;;20.73;73.54
11001;BME280;5553;48.506;8.870;2022-09-03T11:19:12;96199.00;;;20.53;74.60
11001;BME280;5553;48.506;8.870;2022-09-03T11:21:42;96226.69;;;20.74;75.15
11001;BME280;5553;48.506;8.870;2022-09-03T11:24:13;96237.88;;;20.13;74.31
11001;BME280;5553;48.506;8.870;2022-09-03T11:26:46;96256.84;;;18.93;77.26
11001;BME280;5553;48.506;8.870;2022-09-03T11:29:19;96240.13;;;18.37;78.24
11001;BME280;5553;48.506;8.870;2022-09-03T11:31:59;96250.84;;;18.42;75.06
11001;BME280;5553;48.506;8.870;2022-09-03T11:34:43;96268.91;;;18.35;75.83
11001;BME280;5553;48.506;8.870;2022-09-03T11:37:18;96277.38;;;18.49;76.82
11001;BME280;5553;48.506;8.870;2022-09-03T11:39:56;96293.28;;;18.22;80.96
11001;BME280;5553;48.506;8.870;2022-09-03T11:42:28;96295.06;;;17.66;89.86
11001;BME280;5553;48.506;8.870;2022-09-03T11:45:20;96289.44;;;17.79;94.10
11001;BME280;5553;48.506;8.870;2022-09-03T11:47:52;96286.47;;;17.64;96.25
11001;BME280;5553;48.506;8.870;2022-09-03T11:50:23;96293.28;;;17.55;100.00
11001;BME280;5553;48.506;8.870;2022-09-03T11:52:53;96293.66;;;17.46;100.00
11001;BME280;5553;48.506;8.870;2022-09-03T11:55:27;96317.13;;;17.61;100.00
11001;BME280;5553;48.506;8.870;2022-09-03T11:57:58;96306.84;;;17.98;100.00
11001;BME280;5553;48.506;8.870;2022-09-03T12:00:39;96310.28;;;18.33;98.49
11001;BME280;5553;48.506;8.870;2022-09-03T12:03:13;96302.69;;;18.08;95.30
11001;BME280;5553;48.506;8.870;2022-09-03T12:05:49;96305.94;;;18.27;97.02
11001;BME280;5553;48.506;8.870;2022-09-03T12:11:28;96290.69;;;17.88;99.04
11001;BME280;5553;48.506;8.870;2022-09-03T12:14:05;96292.00;;;17.74;100.00
11001;BME280;5553;48.506;8.870;2022-09-03T12:16:56;96280.16;;;17.53;100.00
11001;BME280;5553;48.506;8.870;2022-09-03T12:21:59;96282.34;;;17.39;100.00
11001;BME280;5553;48.506;8.870;2022-09-03T12:24:28;96277.66;;;17.46;100.00
11001;BME280;5553;48.506;8.870;2022-09-03T12:27:00;96279.88;;;17.66;100.00
11001;BME280;5553;48.506;8.870;2022-09-03T12:29:30;96275.50;;;16.86;100.00
11001;BME280;5553;48.506;8.870;2022-09-03T12:32:06;96277.97;;;17.04;100.00
11001;BME280;5553;48.506;8.870;2022-09-03T12:37:20;96287.78;;;17.61;100.00
11001;BME280;5553;48.506;8.870;2022-09-03T12:39:50;96290.38;;;17.56;100.00
11001;BME280;5553;48.506;8.870;2022-09-03T12:42:22;96284.69;;;17.81;100.00
11001;BME280;5553;48.506;8.870;2022-09-03T12:44:51;96280.47;;;18.19;100.00
11001;BME280;5553;48.506;8.870;2022-09-03T12:47:21;96276.31;;;18.67;100.00
11001;BME280;5553;48.506;8.870;2022-09-03T12:50:10;96270.50;;;19.19;100.00
11001;BME280;5553;48.506;8.870;2022-09-03T12:52:44;96269.19;;;18.94;100.00
11001;BME280;5553;48.506;8.870;2022-09-03T12:58:05;96286.63;;;20.58;96.18
11001;BME280;5553;48.506;8.870;2022-09-03T13:00:39;96288.22;;;21.17;91.29
11001;BME280;5553;48.506;8.870;2022-09-03T13:03:12;96292.88;;;21.42;88.32
11001;BME280;5553;48.506;8.870;2022-09-03T13:05:44;96290.75;;;20.81;89.72
11001;BME280;5553;48.506;8.870;2022-09-03T13:10:51;96295.56;;;20.31;88.02
11001;BME280;5553;48.506;8.870;2022-09-03T13:13:22;96293.63;;;19.84;94.30
11001;BME280;5553;48.506;8.870;2022-09-03T13:16:01;96298.78;;;20.28;95.11
11001;BME280;5553;48.506;8.870;2022-09-03T13:18:37;96295.94;;;19.76;96.09
11001;BME280;5553;48.506;8.870;2022-09-03T13:21:14;96299.84;;;19.95;95.64
11001;BME280;5553;48.506;8.870;2022-09-03T13:23:59;96297.00;;;20.49;92.45
11001;BME280;5553;48.506;8.870;2022-09-03T13:26:43;96291.81;;;21.63;90.43
11001;BME280;5553;48.506;8.870;2022-09-03T13:29:38;96289.72;;;22.21;83.76
11001;BME280;5553;48.506;8.870;2022-09-03T13:32:16;96280.31;;;20.85;84.69
11001;BME280;5553;48.506;8.870;2022-09-03T13:34:53;96286.72;;;20.78;87.18
11001;BME280;5553;48.506;8.870;2022-09-03T13:37:26;96283.38;;;20.51;87.46
11001;BME280;5553;48.506;8.870;2022-09-03T13:45:53;96270.47;;;21.05;85.83
11001;BME280;5553;48.506;8.870;2022-09-03T13:48:29;96274.63;;;21.49;85.72
11001;BME280;5553;48.506;8.870;2022-09-03T13:51:12;96261.66;;;21.10;84.04
11001;BME280;5553;48.506;8.870;2022-09-03T13:53:50;96258.53;;;21.49;81.43
11001;BME280;5553;48.506;8.870;2022-09-03T13:56:31;96246.53;;;22.88;73.46
11001;BME280;5553;48.506;8.870;2022-09-03T13:59:06;96246.59;;;23.32;70.22
11001;BME280;5553;48.506;8.870;2022-09-03T14:01:57;96236.56;;;24.11;67.16
11001;BME280;5553;48.506;8.870;2022-09-03T14:04:33;96232.88;;;24.02;65.13
11001;BME280;5553;48.506;8.870;2022-09-03T14:07:10;96223.91;;;23.83;65.76